createdAt,value
2022-10-13T00:00:51.107Z,48.02
2022-10-13T00:02:22.913Z,48.05
2022-10-13T00:03:54.473Z,47.80
2022-10-13T00:05:26.138Z,48.26
2022-10-13T00:06:57.727Z,48.57
2022-10-13T00:08:30.337Z,48.34
2022-10-13T00:10:01.896Z,48.07
2022-10-13T00:11:33.525Z,48.26
2022-10-13T00:13:05.217Z,48.51
2022-10-13T00:14:36.839Z,49.10
2022-10-13T00:16:08.936Z,48.56
2022-10-13T00:17:41.982Z,48.42
2022-10-13T00:19:15.172Z,48.88
2022-10-13T00:20:50.006Z,48.81
2022-10-13T00:22:22.102Z,49.23
2022-10-13T00:23:53.781Z,49.50
2022-10-13T00:25:25.698Z,49.08
2022-10-13T00:26:57.275Z,49.13
2022-10-13T00:28:28.867Z,49.44
2022-10-13T00:30:00.563Z,49.60
2022-10-13T00:31:32.231Z,49.52
2022-10-13T00:33:04.010Z,49.23
2022-10-13T00:34:37.086Z,49.61
2022-10-13T00:36:08.797Z,49.58
2022-10-13T00:37:40.395Z,49.30
2022-10-13T00:39:11.887Z,49.79
2022-10-13T00:40:44.482Z,49.73
2022-10-13T00:42:16.505Z,49.96
2022-10-13T00:43:51.542Z,49.43
2022-10-13T00:45:24.333Z,50.21
2022-10-13T00:46:55.887Z,50.27
2022-10-13T00:48:27.866Z,50.47
2022-10-13T00:49:59.661Z,50.32
2022-10-13T00:51:32.381Z,50.15
2022-10-13T00:53:03.972Z,50.57
2022-10-13T00:54:35.622Z,50.99
2022-10-13T00:56:08.090Z,50.61
2022-10-13T00:57:40.707Z,50.84
2022-10-13T00:59:14.267Z,50.85
2022-10-13T01:00:46.770Z,50.56
2022-10-13T01:02:18.527Z,50.89
2022-10-13T01:03:50.664Z,50.59
2022-10-13T01:05:22.970Z,50.53
2022-10-13T01:06:55.300Z,51.17
2022-10-13T01:08:27.457Z,51.19
2022-10-13T01:10:01.009Z,50.77
2022-10-13T01:11:51.263Z,51.25
2022-10-13T01:13:43.151Z,50.73
2022-10-13T01:15:19.416Z,51.16
2022-10-13T01:16:56.799Z,50.99
2022-10-13T01:18:28.609Z,51.86
2022-10-13T01:20:05.869Z,51.31
2022-10-13T01:21:45.224Z,51.64
2022-10-13T01:23:16.765Z,52.05
2022-10-13T01:25:08.563Z,52.53
2022-10-13T01:26:49.463Z,51.65
2022-10-13T01:28:39.302Z,52.21
2022-10-13T01:30:14.887Z,51.97
2022-10-13T01:31:46.456Z,52.67
2022-10-13T01:33:20.134Z,52.11
2022-10-13T01:34:53.131Z,52.51
2022-10-13T01:36:36.760Z,52.17
2022-10-13T01:38:20.712Z,52.09
2022-10-13T01:39:57.311Z,51.90
2022-10-13T01:41:29.710Z,52.26
2022-10-13T01:43:13.709Z,52.16
2022-10-13T01:44:55.206Z,52.27
2022-10-13T01:46:27.315Z,52.37
2022-10-13T01:47:59.504Z,52.19
2022-10-13T01:49:32.127Z,52.82
2022-10-13T01:51:03.760Z,52.08
2022-10-13T01:52:35.957Z,52.22
2022-10-13T01:54:08.050Z,51.96
2022-10-13T01:55:52.195Z,52.31
2022-10-13T01:57:32.460Z,51.78
2022-10-13T01:59:08.444Z,52.65
2022-10-13T02:00:40.993Z,52.13
2022-10-13T02:02:19.625Z,52.77
2022-10-13T02:04:09.684Z,52.14
2022-10-13T02:05:51.955Z,52.11
2022-10-13T02:07:23.759Z,52.08
2022-10-13T02:09:18.740Z,52.46
2022-10-13T02:10:50.318Z,52.70
2022-10-13T02:12:25.215Z,52.84
2022-10-13T02:14:02.170Z,53.00
2022-10-13T02:15:59.770Z,53.23
2022-10-13T02:17:31.347Z,52.95
2022-10-13T02:19:03.597Z,52.93
2022-10-13T02:20:35.528Z,53.19
2022-10-13T02:22:07.297Z,53.22
2022-10-13T02:23:38.825Z,53.28
2022-10-13T02:25:10.475Z,53.70
2022-10-13T02:26:42.151Z,53.76
2022-10-13T02:28:13.855Z,54.10
2022-10-13T02:29:49.333Z,53.97
2022-10-13T02:31:21.097Z,54.32
2022-10-13T02:32:52.762Z,53.75
2022-10-13T02:34:24.515Z,54.47
2022-10-13T02:35:56.303Z,54.50
2022-10-13T02:37:28.088Z,53.99
2022-10-13T02:38:59.683Z,54.01
2022-10-13T02:40:31.260Z,53.83
2022-10-13T02:42:02.928Z,53.91
2022-10-13T02:43:37.365Z,54.17
2022-10-13T02:45:09.284Z,54.40
2022-10-13T02:46:41.346Z,54.26
2022-10-13T02:48:12.926Z,53.46
2022-10-13T02:49:44.585Z,54.00
2022-10-13T02:51:16.141Z,53.78
2022-10-13T02:52:47.664Z,54.18
2022-10-13T02:54:19.598Z,53.97
2022-10-13T02:55:51.110Z,54.40
2022-10-13T02:57:22.845Z,54.41
2022-10-13T02:58:54.410Z,54.67
2022-10-13T03:00:26.240Z,54.22
2022-10-13T03:01:57.802Z,54.35
2022-10-13T03:03:29.375Z,54.51
2022-10-13T03:05:01.008Z,54.00
2022-10-13T03:06:32.599Z,54.15
2022-10-13T03:08:04.276Z,54.29
2022-10-13T03:09:36.239Z,53.65
2022-10-13T03:11:07.912Z,54.06
2022-10-13T03:12:39.538Z,54.09
2022-10-13T03:14:11.103Z,54.65
2022-10-13T03:15:42.653Z,54.14
2022-10-13T03:17:14.207Z,54.07
2022-10-13T03:18:45.736Z,53.41
2022-10-13T03:20:17.439Z,54.10
2022-10-13T03:21:49.088Z,54.18
2022-10-13T03:23:20.714Z,54.26
2022-10-13T03:24:52.330Z,54.16
2022-10-13T03:26:23.853Z,54.54
2022-10-13T03:27:55.740Z,54.72
2022-10-13T03:29:27.265Z,55.12
2022-10-13T03:31:05.691Z,55.31
2022-10-13T03:32:37.261Z,55.24
2022-10-13T03:34:10.020Z,54.67
2022-10-13T03:35:42.163Z,54.75
2022-10-13T03:37:13.666Z,55.16
2022-10-13T03:38:45.170Z,55.17
2022-10-13T03:40:17.293Z,55.40
2022-10-13T03:41:49.011Z,54.57
2022-10-13T03:43:20.527Z,55.23
2022-10-13T03:44:56.390Z,54.98
2022-10-13T03:46:28.752Z,55.03
2022-10-13T03:48:00.288Z,54.46
2022-10-13T03:49:31.845Z,54.51
2022-10-13T03:51:07.179Z,55.29
2022-10-13T03:52:38.781Z,55.16
2022-10-13T03:54:13.579Z,54.68
2022-10-13T03:55:54.517Z,54.77
2022-10-13T03:57:26.031Z,54.51
2022-10-13T03:58:58.421Z,54.41
2022-10-13T04:00:30.073Z,54.30
2022-10-13T04:02:01.752Z,54.48
2022-10-13T04:03:33.547Z,54.67
2022-10-13T04:05:05.262Z,54.64
2022-10-13T04:06:36.965Z,54.94
2022-10-13T04:08:08.564Z,54.71
2022-10-13T04:09:40.424Z,55.09
2022-10-13T04:11:12.839Z,55.18
2022-10-13T04:12:44.446Z,55.10
2022-10-13T04:14:16.006Z,56.03
2022-10-13T04:15:47.486Z,55.50
2022-10-13T04:17:19.120Z,56.05
2022-10-13T04:19:00.714Z,56.12
2022-10-13T04:20:32.289Z,55.43
2022-10-13T04:22:03.930Z,55.34
2022-10-13T04:23:35.659Z,55.58
2022-10-13T04:25:07.581Z,55.91
2022-10-13T04:26:39.265Z,55.56
2022-10-13T04:28:10.946Z,56.25
2022-10-13T04:29:42.559Z,56.26
2022-10-13T04:31:14.245Z,56.06
2022-10-13T04:32:45.884Z,56.03
2022-10-13T04:34:17.437Z,56.39
2022-10-13T04:35:49.031Z,56.43
2022-10-13T04:37:20.647Z,55.67
2022-10-13T04:38:52.479Z,56.12
2022-10-13T04:40:25.290Z,56.58
2022-10-13T04:41:56.960Z,56.18
2022-10-13T04:43:29.033Z,56.56
2022-10-13T04:45:00.703Z,56.75
2022-10-13T04:46:32.359Z,56.34
2022-10-13T04:48:03.852Z,56.50
2022-10-13T04:49:35.637Z,57.17
2022-10-13T04:51:11.280Z,56.13
2022-10-13T04:52:43.044Z,56.38
2022-10-13T04:54:14.654Z,56.54
2022-10-13T04:55:46.270Z,56.29
2022-10-13T04:57:17.953Z,56.34
2022-10-13T04:58:49.521Z,56.61
2022-10-13T05:00:21.504Z,55.95
2022-10-13T05:01:53.184Z,56.52
2022-10-13T05:03:24.979Z,56.52
2022-10-13T05:04:56.624Z,56.34
2022-10-13T05:06:29.985Z,56.35
2022-10-13T05:08:01.723Z,56.43
2022-10-13T05:09:33.488Z,56.19
2022-10-13T05:11:05.195Z,56.27
2022-10-13T05:12:37.391Z,56.63
2022-10-13T05:14:09.629Z,56.39
2022-10-13T05:15:41.693Z,55.97
2022-10-13T05:17:13.263Z,55.94
2022-10-13T05:18:45.138Z,55.79
2022-10-13T05:20:17.855Z,56.17
2022-10-13T05:21:49.624Z,55.79
2022-10-13T05:23:21.284Z,55.85
2022-10-13T05:24:52.890Z,55.80
2022-10-13T05:26:28.722Z,55.90
2022-10-13T05:28:00.410Z,56.19
2022-10-13T05:29:32.157Z,55.99
2022-10-13T05:31:09.475Z,57.07
2022-10-13T05:32:41.024Z,56.57
2022-10-13T05:34:13.479Z,56.80
2022-10-13T05:35:45.253Z,56.92
2022-10-13T05:37:21.991Z,57.17
2022-10-13T05:38:57.330Z,57.26
2022-10-13T05:40:29.642Z,56.81
2022-10-13T05:42:01.297Z,56.74
2022-10-13T05:43:32.943Z,57.17
2022-10-13T05:45:04.710Z,56.72
2022-10-13T05:46:36.476Z,56.95
2022-10-13T05:48:08.170Z,57.56
2022-10-13T05:49:40.114Z,57.86
2022-10-13T05:51:12.782Z,56.82
2022-10-13T05:52:44.583Z,57.58
2022-10-13T05:54:17.562Z,57.56
2022-10-13T05:55:50.777Z,57.41
2022-10-13T05:57:33.435Z,57.14
2022-10-13T05:59:05.701Z,56.98
2022-10-13T06:00:37.306Z,57.67
2022-10-13T06:02:09.549Z,57.05
2022-10-13T06:03:42.180Z,57.38
2022-10-13T06:05:15.277Z,56.98
2022-10-13T06:06:47.536Z,57.33
2022-10-13T06:08:19.224Z,57.19
2022-10-13T06:09:51.284Z,57.53
2022-10-13T06:11:23.422Z,57.03
2022-10-13T06:12:55.155Z,57.35
2022-10-13T06:14:26.743Z,57.62
2022-10-13T06:15:58.300Z,57.53
2022-10-13T06:17:29.923Z,57.41
2022-10-13T06:19:01.631Z,57.74
2022-10-13T06:20:33.432Z,57.10
2022-10-13T06:22:05.177Z,57.45
2022-10-13T06:23:36.735Z,57.08
2022-10-13T06:25:08.916Z,57.37
2022-10-13T06:26:41.006Z,57.50
2022-10-13T06:28:13.448Z,57.26
2022-10-13T06:29:45.046Z,57.26
2022-10-13T06:31:16.552Z,57.44
2022-10-13T06:32:48.264Z,57.64
2022-10-13T06:34:19.829Z,57.20
2022-10-13T06:35:52.438Z,56.87
2022-10-13T06:37:27.324Z,57.11
2022-10-13T06:38:59.242Z,57.38
2022-10-13T06:40:30.822Z,57.23
2022-10-13T06:42:02.387Z,57.00
2022-10-13T06:43:39.861Z,56.99
2022-10-13T06:45:12.066Z,57.16
2022-10-13T06:46:43.663Z,57.55
2022-10-13T06:48:15.180Z,57.59
2022-10-13T06:49:46.712Z,57.67
2022-10-13T06:51:18.645Z,57.24
2022-10-13T06:52:50.424Z,57.17
2022-10-13T06:54:22.671Z,56.98
2022-10-13T06:56:00.681Z,57.11
2022-10-13T06:57:32.376Z,57.35
2022-10-13T06:59:03.914Z,57.47
2022-10-13T07:00:35.688Z,57.32
2022-10-13T07:02:07.615Z,57.44
2022-10-13T07:03:39.215Z,57.20
2022-10-13T07:05:10.830Z,57.44
2022-10-13T07:06:42.452Z,57.23
2022-10-13T07:08:14.037Z,57.41
2022-10-13T07:09:45.618Z,57.14
2022-10-13T07:11:18.761Z,57.28
2022-10-13T07:12:50.421Z,57.16
2022-10-13T07:14:22.032Z,57.17
2022-10-13T07:15:53.684Z,57.83
2022-10-13T07:17:25.782Z,58.02
2022-10-13T07:18:57.350Z,58.14
2022-10-13T07:20:28.955Z,57.95
2022-10-13T07:22:00.539Z,58.19
2022-10-13T07:23:32.069Z,58.05
2022-10-13T07:25:03.768Z,58.39
2022-10-13T07:26:36.917Z,58.21
2022-10-13T07:28:08.489Z,58.54
2022-10-13T07:29:40.181Z,58.22
2022-10-13T07:31:13.899Z,57.94
2022-10-13T07:32:45.608Z,57.91
2022-10-13T07:34:17.138Z,58.15
2022-10-13T07:35:48.691Z,58.08
2022-10-13T07:37:20.644Z,58.02
2022-10-13T07:38:52.500Z,58.25
2022-10-13T07:40:24.367Z,58.31
2022-10-13T07:41:56.265Z,58.37
2022-10-13T07:43:28.001Z,58.58
2022-10-13T07:44:59.555Z,58.74
2022-10-13T07:46:31.163Z,58.52
2022-10-13T07:48:02.750Z,58.33
2022-10-13T07:49:34.377Z,58.47
2022-10-13T07:51:06.544Z,58.36
2022-10-13T07:52:38.182Z,58.18
2022-10-13T07:54:09.759Z,58.46
2022-10-13T07:55:41.435Z,58.45
2022-10-13T07:57:13.081Z,58.37
2022-10-13T07:58:45.395Z,58.11
2022-10-13T08:00:17.125Z,58.30
2022-10-13T08:01:48.982Z,58.26
2022-10-13T08:03:20.689Z,58.39
2022-10-13T08:04:52.341Z,58.31
2022-10-13T08:06:24.305Z,58.27
2022-10-13T08:07:58.363Z,57.97
2022-10-13T08:09:30.824Z,58.09
2022-10-13T08:11:03.222Z,57.95
2022-10-13T08:12:38.041Z,57.59
2022-10-13T08:14:10.437Z,57.88
2022-10-13T08:15:42.619Z,57.45
2022-10-13T08:17:14.097Z,57.52
2022-10-13T08:26:26.209Z,58.31
2022-10-13T08:28:00.451Z,58.20
2022-10-13T08:29:32.366Z,58.28
2022-10-13T08:31:04.185Z,58.16
2022-10-13T08:32:35.973Z,58.32
2022-10-13T08:34:07.625Z,58.13
2022-10-13T08:35:39.380Z,58.13
2022-10-13T08:37:14.988Z,57.91
2022-10-13T08:38:46.732Z,58.15
2022-10-13T08:40:19.982Z,57.85
2022-10-13T08:41:51.785Z,57.95
2022-10-13T08:43:23.486Z,57.88
2022-10-13T08:45:36.341Z,57.46
2022-10-13T08:46:53.394Z,57.14
2022-10-13T08:48:26.118Z,57.04
2022-10-13T08:50:00.455Z,57.05
2022-10-13T08:51:32.701Z,56.87
2022-10-13T08:53:15.260Z,56.70
2022-10-13T08:54:47.094Z,56.85
2022-10-13T08:56:29.084Z,56.87
2022-10-13T08:58:00.968Z,56.73
2022-10-13T08:59:32.588Z,57.03
2022-10-13T09:01:07.338Z,57.04
2022-10-13T09:02:39.350Z,56.87
2022-10-13T09:04:11.501Z,56.89
2022-10-13T09:05:44.781Z,56.70
2022-10-13T09:07:18.633Z,56.40
2022-10-13T09:08:52.935Z,56.30
2022-10-13T09:10:24.568Z,56.10
2022-10-13T09:11:56.444Z,56.03
2022-10-13T09:13:28.048Z,56.17
2022-10-13T09:15:05.640Z,56.14
2022-10-13T09:16:38.574Z,56.16
2022-10-13T09:18:10.915Z,56.15
2022-10-13T09:19:42.565Z,55.90
2022-10-13T09:21:21.574Z,55.93
2022-10-13T09:23:03.643Z,55.82
2022-10-13T09:24:35.225Z,55.61
2022-10-13T09:26:07.748Z,55.54
2022-10-13T09:27:55.448Z,55.48
2022-10-13T09:29:27.309Z,55.14
2022-10-13T09:31:09.157Z,55.04
2022-10-13T09:32:45.508Z,55.11
2022-10-13T09:34:20.165Z,55.35
2022-10-13T09:35:57.447Z,55.25
2022-10-13T09:37:29.429Z,55.22
2022-10-13T09:39:14.178Z,55.02
2022-10-13T09:40:57.465Z,54.88
2022-10-13T09:42:29.819Z,54.74
2022-10-13T09:44:03.663Z,54.49
2022-10-13T09:45:36.021Z,54.29
2022-10-13T09:47:14.619Z,53.99
2022-10-13T09:48:48.140Z,54.13
2022-10-13T09:50:20.915Z,54.23
2022-10-13T09:51:52.594Z,54.44
2022-10-13T09:53:38.580Z,54.27
2022-10-13T09:55:32.223Z,54.49
2022-10-13T09:57:30.863Z,54.13
2022-10-13T09:59:06.903Z,54.00
2022-10-13T10:00:39.262Z,53.77
2022-10-13T10:02:29.928Z,53.92
2022-10-13T10:04:03.986Z,53.63
2022-10-13T10:05:41.562Z,53.27
2022-10-13T10:07:14.132Z,53.33
2022-10-13T10:09:03.274Z,53.18
2022-10-13T10:10:37.042Z,53.04
2022-10-13T10:12:09.735Z,52.82
2022-10-13T10:13:41.383Z,52.64
2022-10-13T10:15:36.365Z,52.40
2022-10-13T10:17:17.934Z,52.29
2022-10-13T10:18:57.753Z,52.49
2022-10-13T10:20:36.692Z,52.26
2022-10-13T10:22:11.066Z,52.41
2022-10-13T10:23:48.988Z,52.67
2022-10-13T10:25:35.929Z,52.73
2022-10-13T10:27:10.930Z,52.83
2022-10-13T10:28:44.500Z,52.68
2022-10-13T10:30:16.921Z,52.91
2022-10-13T10:31:57.652Z,52.83
2022-10-13T10:33:41.089Z,52.81
2022-10-13T10:35:21.820Z,52.61
2022-10-13T10:36:59.558Z,52.74
2022-10-13T10:38:34.290Z,52.51
2022-10-13T10:40:25.166Z,52.46
2022-10-13T10:42:19.680Z,52.10
2022-10-13T10:43:52.255Z,51.82
2022-10-13T10:45:27.134Z,51.95
2022-10-13T10:47:03.138Z,52.07
2022-10-13T10:48:41.235Z,52.14
2022-10-13T10:50:16.193Z,52.07
2022-10-13T10:51:47.877Z,51.85
2022-10-13T10:53:19.454Z,51.82
2022-10-13T10:54:55.887Z,51.96
2022-10-13T10:56:27.497Z,51.81
2022-10-13T10:57:59.398Z,51.47
2022-10-13T10:59:40.884Z,51.50
2022-10-13T11:01:12.520Z,51.38
2022-10-13T11:02:46.660Z,51.28
2022-10-13T11:04:33.705Z,50.75
2022-10-13T11:06:06.275Z,50.55
2022-10-13T11:07:43.972Z,50.57
2022-10-13T11:09:15.588Z,50.43
2022-10-13T11:10:47.262Z,50.40
2022-10-13T11:12:22.078Z,50.35
2022-10-13T11:13:54.471Z,50.32
2022-10-13T11:15:31.277Z,50.26
2022-10-13T11:17:06.002Z,50.36
2022-10-13T11:18:59.109Z,49.98
2022-10-13T11:20:36.794Z,49.79
2022-10-13T11:22:08.346Z,49.93
2022-10-13T11:23:43.885Z,50.23
2022-10-13T11:25:33.935Z,50.02
2022-10-13T11:27:09.313Z,49.78
2022-10-13T11:28:41.021Z,49.69
2022-10-13T11:30:31.594Z,49.78
2022-10-13T11:32:04.988Z,49.68
2022-10-13T11:33:37.252Z,49.68
2022-10-13T11:35:08.730Z,49.56
2022-10-13T11:36:46.908Z,49.51
2022-10-13T11:38:24.440Z,49.58
2022-10-13T11:39:59.960Z,49.20
2022-10-13T11:41:32.315Z,49.29
2022-10-13T11:43:18.818Z,49.11
2022-10-13T11:44:57.901Z,48.93
2022-10-13T11:46:35.513Z,48.81
2022-10-13T11:48:25.730Z,48.79
2022-10-13T11:50:00.350Z,48.57
2022-10-13T11:51:32.018Z,48.49
2022-10-13T11:53:03.619Z,48.16
2022-10-13T11:54:54.434Z,47.99
2022-10-13T11:56:48.327Z,48.02
2022-10-13T11:58:20.459Z,47.99
2022-10-13T11:59:55.461Z,48.02
2022-10-13T12:01:27.094Z,48.05
2022-10-13T12:02:58.631Z,48.17
2022-10-13T12:04:30.462Z,48.26
2022-10-13T12:06:05.999Z,48.23
2022-10-13T12:07:39.220Z,48.10
2022-10-13T12:09:20.382Z,48.10
2022-10-13T12:10:52.957Z,48.00
2022-10-13T12:12:24.668Z,47.82
2022-10-13T12:13:56.492Z,47.68
2022-10-13T12:15:30.428Z,47.65
2022-10-13T12:17:02.707Z,47.52
2022-10-13T12:18:35.288Z,47.26
2022-10-13T12:20:25.725Z,47.15
2022-10-13T12:22:00.668Z,47.08
2022-10-13T12:23:32.499Z,46.96
2022-10-13T12:25:04.849Z,46.85
2022-10-13T12:26:36.533Z,46.93
2022-10-13T12:28:15.071Z,46.85
2022-10-13T12:29:46.829Z,46.57
2022-10-13T12:31:22.703Z,46.34
2022-10-13T12:32:55.303Z,46.21
2022-10-13T12:34:27.819Z,46.07
2022-10-13T12:36:12.322Z,45.94
2022-10-13T12:37:46.810Z,46.05
2022-10-13T12:39:18.935Z,46.08
2022-10-13T12:40:51.366Z,45.94
2022-10-13T12:42:25.375Z,45.98
2022-10-13T12:43:59.952Z,46.02
2022-10-13T12:45:34.198Z,45.95
2022-10-13T12:47:06.759Z,45.68
2022-10-13T12:48:43.696Z,45.53
2022-10-13T12:50:21.229Z,45.54
2022-10-13T12:51:54.794Z,45.72
2022-10-13T12:53:26.860Z,45.56
2022-10-13T12:55:00.477Z,45.52
2022-10-13T12:56:32.112Z,45.44
2022-10-13T12:58:03.802Z,45.32
2022-10-13T12:59:35.438Z,45.35
2022-10-13T13:01:27.705Z,45.29
2022-10-13T13:03:00.080Z,45.04
2022-10-13T13:04:37.756Z,45.05
2022-10-13T13:06:15.589Z,44.74
2022-10-13T13:07:52.500Z,44.54
2022-10-13T13:09:24.329Z,44.48
2022-10-13T13:10:56.412Z,44.32
2022-10-13T13:12:28.577Z,44.09
2022-10-13T13:14:19.110Z,44.23
2022-10-13T13:15:50.695Z,44.12
2022-10-13T13:17:45.381Z,44.06
2022-10-13T13:19:22.065Z,44.13
2022-10-13T13:20:54.018Z,44.16
2022-10-13T13:22:25.717Z,44.24
2022-10-13T13:23:57.595Z,44.28
2022-10-13T13:25:29.129Z,44.38
2022-10-13T13:27:02.431Z,44.25
2022-10-13T13:28:34.149Z,44.33
2022-10-13T13:30:15.273Z,44.13
2022-10-13T13:31:46.960Z,44.29
2022-10-13T13:33:18.590Z,44.31
2022-10-13T13:34:50.447Z,44.00
2022-10-13T13:36:23.299Z,44.00
2022-10-13T13:37:55.026Z,43.95
2022-10-13T13:39:26.713Z,43.61
2022-10-13T13:41:02.940Z,43.41
2022-10-13T13:42:35.861Z,43.77
2022-10-13T13:44:07.523Z,43.76
2022-10-13T13:45:39.058Z,44.04
2022-10-13T13:47:20.281Z,43.96
2022-10-13T13:48:52.139Z,43.84
2022-10-13T13:50:25.262Z,43.96
2022-10-13T13:51:56.808Z,44.04
2022-10-13T13:53:28.417Z,44.08
2022-10-13T13:55:01.579Z,43.91
2022-10-13T13:56:33.416Z,43.93
2022-10-13T13:58:05.275Z,43.90
2022-10-13T13:59:36.941Z,43.89
2022-10-13T14:01:08.518Z,43.84
2022-10-13T14:02:40.203Z,43.78
2022-10-13T14:04:11.746Z,43.70
2022-10-13T14:05:43.348Z,43.76
2022-10-13T14:07:14.986Z,43.74
2022-10-13T14:08:47.152Z,43.87
2022-10-13T14:10:18.869Z,43.87
2022-10-13T14:11:50.429Z,43.83
2022-10-13T14:13:25.013Z,43.88
2022-10-13T14:14:57.132Z,43.83
2022-10-13T14:16:29.021Z,43.66
2022-10-13T14:18:00.612Z,43.83
2022-10-13T14:19:34.760Z,43.83
2022-10-13T14:21:07.398Z,43.92
2022-10-13T14:22:39.072Z,43.96
2022-10-13T14:24:14.252Z,43.97
2022-10-13T14:25:46.027Z,44.00
2022-10-13T14:27:17.689Z,43.91
2022-10-13T14:28:50.054Z,43.77
2022-10-13T14:30:21.952Z,43.89
2022-10-13T14:31:53.563Z,43.61
2022-10-13T14:33:25.519Z,43.69
2022-10-13T14:34:57.157Z,43.54
2022-10-13T14:36:28.775Z,43.34
2022-10-13T14:38:00.566Z,43.49
2022-10-13T14:39:32.190Z,43.27
2022-10-13T14:41:04.809Z,43.21
2022-10-13T14:42:36.380Z,43.42
2022-10-13T14:44:09.576Z,43.26
2022-10-13T14:45:41.451Z,43.36
2022-10-13T14:47:13.493Z,43.15
2022-10-13T14:48:45.602Z,43.16
2022-10-13T14:50:17.265Z,43.35
2022-10-13T14:51:48.926Z,43.42
2022-10-13T14:53:20.531Z,43.25
2022-10-13T14:54:52.160Z,43.30
2022-10-13T14:56:23.764Z,43.29
2022-10-13T14:57:55.420Z,43.28
2022-10-13T14:59:27.085Z,43.42
2022-10-13T15:00:58.788Z,43.43
2022-10-13T15:02:30.398Z,43.39
2022-10-13T15:04:02.089Z,43.44
2022-10-13T15:05:33.695Z,43.58
2022-10-13T15:11:02.823Z,43.63
2022-10-13T15:15:08.444Z,43.84
2022-10-13T15:17:08.473Z,43.89
2022-10-13T15:18:40.047Z,43.91
2022-10-13T15:20:13.872Z,44.14
2022-10-13T15:21:58.686Z,44.07
2022-10-13T15:23:30.864Z,44.12
2022-10-13T15:27:23.566Z,44.28
2022-10-13T15:29:11.699Z,44.27
2022-10-13T15:31:06.693Z,44.35
2022-10-13T15:32:47.978Z,44.54
2022-10-13T15:34:27.534Z,44.75
2022-10-13T15:36:10.245Z,44.66
2022-10-13T15:39:35.922Z,44.74
2022-10-13T15:41:07.672Z,44.77
2022-10-13T15:42:39.305Z,44.84
2022-10-13T15:44:10.953Z,44.68
2022-10-13T15:45:42.630Z,44.74
2022-10-13T15:47:17.195Z,44.92
2022-10-13T15:48:49.558Z,44.95
2022-10-13T15:50:21.246Z,45.07
2022-10-13T15:51:52.845Z,45.11
2022-10-13T15:53:24.571Z,45.21
2022-10-13T15:54:56.960Z,45.07
2022-10-13T15:56:28.613Z,45.17
2022-10-13T15:58:00.303Z,45.38
2022-10-13T15:59:31.984Z,45.35
2022-10-13T16:01:09.981Z,45.48
2022-10-13T16:02:42.147Z,45.32
2022-10-13T16:04:13.756Z,45.40
2022-10-13T16:05:45.858Z,45.74
2022-10-13T16:07:20.724Z,45.77
2022-10-13T16:08:52.378Z,45.76
2022-10-13T16:10:23.910Z,45.75
2022-10-13T16:11:55.428Z,45.94
2022-10-13T16:13:26.944Z,45.90
2022-10-13T16:14:58.472Z,46.08
2022-10-13T16:16:30.352Z,46.22
2022-10-13T16:18:02.288Z,46.16
2022-10-13T16:19:33.804Z,46.32
2022-10-13T16:21:17.301Z,46.27
2022-10-13T16:22:49.822Z,46.62
2022-10-13T16:24:21.823Z,46.56
2022-10-13T16:25:53.796Z,46.57
2022-10-13T16:27:25.417Z,46.74
2022-10-13T16:28:57.239Z,46.93
2022-10-13T16:30:30.521Z,46.86
2022-10-13T16:32:02.263Z,46.83
2022-10-13T16:33:34.583Z,46.96
2022-10-13T16:35:06.665Z,46.93
2022-10-13T16:36:38.313Z,46.88
2022-10-13T16:38:11.203Z,46.88
2022-10-13T16:39:46.512Z,47.04
2022-10-13T16:41:21.154Z,46.89
2022-10-13T16:42:52.851Z,47.23
2022-10-13T16:44:24.808Z,47.06
2022-10-13T16:46:00.014Z,47.12
2022-10-13T16:47:32.122Z,47.21
2022-10-13T16:49:03.708Z,47.29
2022-10-13T16:50:37.618Z,47.47
2022-10-13T16:52:09.280Z,47.65
2022-10-13T16:53:40.989Z,47.93
2022-10-13T16:55:12.784Z,47.50
2022-10-13T16:56:44.415Z,47.44
2022-10-13T16:58:16.045Z,47.49
2022-10-13T16:59:48.002Z,47.58
2022-10-13T17:01:19.670Z,47.54
2022-10-13T17:02:51.765Z,47.60
2022-10-13T17:04:23.476Z,47.63
2022-10-13T17:05:55.260Z,47.65
2022-10-13T17:07:27.024Z,47.72
2022-10-13T17:08:58.973Z,47.84
2022-10-13T17:10:31.402Z,48.08
2022-10-13T17:12:04.025Z,47.77
2022-10-13T17:13:37.353Z,48.06
2022-10-13T17:15:09.434Z,48.09
2022-10-13T17:16:41.209Z,48.00
2022-10-13T17:18:12.910Z,48.44
2022-10-13T17:19:44.662Z,48.62
2022-10-13T17:21:17.070Z,48.62
2022-10-13T17:22:48.771Z,48.47
2022-10-13T17:24:20.516Z,48.75
2022-10-13T17:25:52.418Z,48.69
2022-10-13T17:27:24.367Z,48.74
2022-10-13T17:28:56.215Z,48.75
2022-10-13T17:30:28.634Z,49.03
2022-10-13T17:32:01.516Z,48.76
2022-10-13T17:33:33.803Z,48.92
2022-10-13T17:35:06.212Z,48.85
2022-10-13T17:36:37.911Z,48.86
2022-10-13T17:38:10.095Z,48.56
2022-10-13T17:39:41.833Z,48.70
2022-10-13T17:41:13.532Z,48.62
2022-10-13T17:42:45.315Z,48.67
2022-10-13T17:44:20.953Z,48.42
2022-10-13T17:45:52.489Z,48.33
2022-10-13T17:47:24.172Z,48.45
2022-10-13T17:48:56.460Z,48.27
2022-10-13T17:50:28.374Z,48.58
2022-10-13T17:52:00.347Z,48.32
2022-10-13T17:53:32.211Z,48.31
2022-10-13T17:55:03.990Z,48.39
2022-10-13T17:56:35.733Z,48.38
2022-10-13T17:58:07.292Z,48.35
2022-10-13T17:59:38.775Z,48.40
2022-10-13T18:01:13.752Z,48.41
2022-10-13T18:02:45.497Z,48.36
2022-10-13T18:04:18.625Z,48.47
2022-10-13T18:05:53.456Z,48.44
2022-10-13T18:07:25.366Z,48.62
2022-10-13T18:08:56.988Z,48.61
2022-10-13T18:10:33.915Z,48.52
2022-10-13T18:12:17.781Z,48.67
2022-10-13T18:13:49.606Z,48.74
2022-10-13T18:15:21.265Z,48.78
2022-10-13T18:16:52.945Z,48.86
2022-10-13T18:18:24.539Z,48.91
2022-10-13T18:19:58.013Z,48.54
2022-10-13T18:21:29.834Z,48.71
2022-10-13T18:23:01.506Z,49.02
2022-10-13T18:24:33.106Z,49.06
2022-10-13T18:26:08.685Z,48.98
2022-10-13T18:27:40.635Z,48.86
2022-10-13T18:29:12.521Z,49.06
2022-10-13T18:30:44.073Z,49.11
2022-10-13T18:32:15.779Z,48.82
2022-10-13T18:33:47.461Z,48.92
2022-10-13T18:35:18.961Z,48.84
2022-10-13T18:36:52.233Z,48.64
2022-10-13T18:38:24.385Z,48.67
2022-10-13T18:39:55.966Z,48.43
2022-10-13T18:41:28.087Z,48.49
2022-10-13T18:42:59.722Z,48.44
2022-10-13T18:44:31.388Z,48.32
2022-10-13T18:46:03.178Z,48.32
2022-10-13T18:47:35.254Z,48.16
2022-10-13T18:49:07.192Z,48.12
2022-10-13T18:50:39.102Z,48.10
2022-10-13T18:52:11.028Z,48.18
2022-10-13T18:53:43.006Z,47.77
2022-10-13T18:55:14.713Z,47.88
2022-10-13T18:56:46.289Z,47.76
2022-10-13T18:58:17.921Z,47.70
2022-10-13T18:59:49.491Z,47.72
2022-10-13T19:01:22.070Z,47.84
2022-10-13T19:02:53.897Z,47.73
2022-10-13T19:04:26.341Z,47.39
2022-10-13T19:05:58.159Z,47.85
2022-10-13T19:07:30.293Z,47.65
2022-10-13T19:09:03.977Z,47.26
2022-10-13T19:10:36.073Z,47.45
2022-10-13T19:12:07.767Z,47.35
2022-10-13T19:13:40.011Z,47.34
2022-10-13T19:15:11.638Z,47.26
2022-10-13T19:16:43.982Z,47.34
2022-10-13T19:18:15.734Z,47.28
2022-10-13T19:19:47.564Z,47.34
2022-10-13T19:21:19.545Z,47.35
2022-10-13T19:22:51.161Z,47.58
2022-10-13T19:24:23.161Z,47.34
2022-10-13T19:25:58.107Z,47.69
2022-10-13T19:27:29.903Z,47.76
2022-10-13T19:29:10.800Z,47.73
2022-10-13T19:30:42.380Z,47.52
2022-10-13T19:32:14.055Z,47.95
2022-10-13T19:33:47.420Z,47.77
2022-10-13T19:35:18.974Z,47.83
2022-10-13T19:36:50.748Z,47.54
2022-10-13T19:38:22.375Z,47.97
2022-10-13T19:39:54.060Z,47.78
2022-10-13T19:41:27.115Z,47.60
2022-10-13T19:42:58.660Z,47.75
2022-10-13T19:44:30.268Z,47.61
2022-10-13T19:46:02.412Z,47.29
2022-10-13T19:47:33.981Z,47.51
2022-10-13T19:49:05.778Z,47.62
2022-10-13T19:50:38.161Z,47.42
2022-10-13T19:52:09.842Z,47.56
2022-10-13T19:53:41.552Z,47.27
2022-10-13T19:55:13.436Z,47.40
2022-10-13T19:56:45.505Z,47.48
2022-10-13T19:58:17.113Z,47.59
2022-10-13T19:59:48.847Z,47.43
2022-10-13T20:01:20.970Z,47.56
2022-10-13T20:02:52.801Z,47.79
2022-10-13T20:04:24.396Z,47.34
2022-10-13T20:05:56.041Z,47.68
2022-10-13T20:07:27.674Z,47.54
2022-10-13T20:08:59.722Z,47.12
2022-10-13T20:10:31.285Z,47.19
2022-10-13T20:12:02.914Z,47.38
2022-10-13T20:13:34.964Z,46.98
2022-10-13T20:15:06.879Z,47.15
2022-10-13T20:16:38.629Z,47.48
2022-10-13T20:18:13.029Z,46.98
2022-10-13T20:19:45.004Z,47.45
2022-10-13T20:21:18.047Z,47.39
2022-10-13T20:22:49.650Z,47.56
2022-10-13T20:24:23.372Z,47.46
2022-10-13T20:25:55.046Z,47.72